createdAt,value
2018-09-03T00:02:59.738Z,2.87
2018-09-03T00:08:03.800Z,4.33
2018-09-03T00:13:08.343Z,3.97
2018-09-03T00:18:28.609Z,3.23
2018-09-03T00:23:32.866Z,4.37
2018-09-03T00:28:36.737Z,5.10
2018-09-03T00:33:46.036Z,3.83
2018-09-03T00:39:09.952Z,4.90
2018-09-03T00:44:19.378Z,3.63
2018-09-03T00:49:23.441Z,4.23
2018-09-03T00:54:27.560Z,4.10
2018-09-03T00:59:32.300Z,4.63
2018-09-03T01:04:36.184Z,4.40
2018-09-03T01:09:40.096Z,3.90
2018-09-03T01:14:44.129Z,6.07
2018-09-03T01:19:47.916Z,4.83
2018-09-03T01:24:51.764Z,3.57
2018-09-03T01:29:55.697Z,3.33
2018-09-03T01:34:59.826Z,5.87
2018-09-03T01:40:03.901Z,4.97
2018-09-03T01:45:07.928Z,4.00
2018-09-03T01:50:11.834Z,4.17
2018-09-03T01:55:15.707Z,4.77
2018-09-03T02:00:19.373Z,4.93
2018-09-03T02:05:23.576Z,4.67
2018-09-03T02:10:27.278Z,5.00
2018-09-03T02:15:31.232Z,4.10
2018-09-03T02:20:34.981Z,3.97
2018-09-03T02:25:39.212Z,3.57
2018-09-03T02:30:43.309Z,4.03
2018-09-03T02:35:47.364Z,4.70
2018-09-03T02:40:51.166Z,6.27
2018-09-03T02:45:54.912Z,4.80
2018-09-03T02:50:59.483Z,4.07
2018-09-03T02:56:03.444Z,5.00
2018-09-03T03:01:07.200Z,5.10
2018-09-03T03:06:10.908Z,5.13
2018-09-03T03:11:14.598Z,5.37
2018-09-03T03:16:18.742Z,3.33
2018-09-03T03:21:22.854Z,7.17
2018-09-03T03:26:26.559Z,4.37
2018-09-03T03:31:30.297Z,4.03
2018-09-03T03:36:34.326Z,3.60
2018-09-03T03:41:38.338Z,4.40
2018-09-03T03:46:42.245Z,4.97
2018-09-03T03:52:02.215Z,3.83
2018-09-03T03:57:06.480Z,3.20
2018-09-03T04:02:10.725Z,3.63
2018-09-03T04:07:14.636Z,4.30
2018-09-03T04:12:18.567Z,4.30
2018-09-03T04:17:22.537Z,5.23
2018-09-03T04:22:26.847Z,4.77
2018-09-03T04:27:30.823Z,4.07
2018-09-03T04:32:34.621Z,4.20
2018-09-03T04:37:38.397Z,4.73
2018-09-03T04:42:42.507Z,4.80
2018-09-03T04:48:02.328Z,5.10
2018-09-03T04:53:06.527Z,4.80
2018-09-03T04:58:29.344Z,5.30
2018-09-03T05:03:33.934Z,7.53
2018-09-03T05:08:37.808Z,4.33
2018-09-03T05:13:41.487Z,6.53
2018-09-03T05:18:45.324Z,5.67
2018-09-03T05:23:49.221Z,6.07
2018-09-03T05:28:54.992Z,4.40
2018-09-03T05:33:58.695Z,4.57
2018-09-03T05:39:13.231Z,5.53
2018-09-03T05:44:17.028Z,6.87
2018-09-03T05:49:20.967Z,7.00
2018-09-03T05:54:24.641Z,5.53
2018-09-03T05:59:29.375Z,4.77
2018-09-03T06:04:33.855Z,4.93
2018-09-03T06:09:37.539Z,6.27
2018-09-03T06:14:41.892Z,6.57
2018-09-03T06:19:45.923Z,6.97
2018-09-03T06:24:50.014Z,5.47
2018-09-03T06:29:53.796Z,6.00
2018-09-03T06:34:57.621Z,6.53
2018-09-03T06:40:01.585Z,6.43
2018-09-03T06:45:08.052Z,7.53
2018-09-03T06:50:12.130Z,8.63
2018-09-03T06:55:16.088Z,6.70
2018-09-03T07:00:20.312Z,6.27
2018-09-03T07:05:23.952Z,8.60
2018-09-03T07:10:30.008Z,8.53
2018-09-03T07:15:34.395Z,8.30
2018-09-03T07:20:38.158Z,8.30
2018-09-03T07:25:41.815Z,6.50
2018-09-03T07:30:45.596Z,8.47
2018-09-03T07:35:49.450Z,9.30
2018-09-03T07:40:53.124Z,11.47
2018-09-03T07:46:18.887Z,11.90
2018-09-03T07:51:22.831Z,10.80
2018-09-03T07:56:27.057Z,9.77
2018-09-03T08:01:31.076Z,8.33
2018-09-03T08:06:35.168Z,11.93
2018-09-03T08:11:39.378Z,8.70
2018-09-03T08:16:43.135Z,10.30
2018-09-03T08:21:47.102Z,9.47
2018-09-03T08:26:50.988Z,9.00
2018-09-03T08:31:55.350Z,10.73
2018-09-03T08:36:59.480Z,14.73
2018-09-03T08:42:03.349Z,9.73
2018-09-03T08:58:23.448Z,10.03
2018-09-03T09:03:32.494Z,11.00
2018-09-03T09:19:32.834Z,10.40
2018-09-03T09:24:36.977Z,12.57
2018-09-03T09:29:40.905Z,11.10
2018-09-03T09:34:44.574Z,10.43
2018-09-03T09:39:48.559Z,12.03
2018-09-03T09:44:52.242Z,11.10
2018-09-03T09:49:55.980Z,11.10
2018-09-03T09:54:59.978Z,12.20
2018-09-03T10:00:03.732Z,11.60
2018-09-03T10:05:08.130Z,12.40
2018-09-03T10:10:12.432Z,13.93
2018-09-03T10:15:16.375Z,14.67
2018-09-03T10:20:20.302Z,15.13
2018-09-03T10:25:24.609Z,14.00
2018-09-03T10:30:28.568Z,16.03
2018-09-03T10:35:32.536Z,14.27
2018-09-03T10:40:36.769Z,15.20
2018-09-03T10:45:43.883Z,14.67
2018-09-03T10:50:47.695Z,15.10
2018-09-03T10:55:51.533Z,16.40
2018-09-03T11:00:55.497Z,15.00
2018-09-03T11:05:59.426Z,15.80
2018-09-03T11:11:03.279Z,14.67
2018-09-03T11:16:07.251Z,15.67
2018-09-03T11:21:11.064Z,14.63
2018-09-03T11:26:15.318Z,17.30
2018-09-03T11:31:18.882Z,16.87
2018-09-03T11:36:22.781Z,19.13
2018-09-03T11:41:26.509Z,23.47
2018-09-03T11:46:30.464Z,25.77
2018-09-03T11:51:34.141Z,25.10
2018-09-03T11:56:38.191Z,29.00
2018-09-03T12:01:41.835Z,28.70
2018-09-03T12:06:46.183Z,29.13
2018-09-03T12:11:50.272Z,26.57
2018-09-03T12:16:54.365Z,26.17
2018-09-03T12:21:58.056Z,23.07
2018-09-03T12:27:02.576Z,24.17
2018-09-03T12:32:06.593Z,21.37
2018-09-03T12:37:10.964Z,20.40
2018-09-03T12:42:15.276Z,23.93
2018-09-03T12:47:19.209Z,21.00
2018-09-03T12:52:23.008Z,21.50
2018-09-03T12:57:27.157Z,21.37
2018-09-03T13:02:39.412Z,23.43
2018-09-03T13:07:35.003Z,21.90
2018-09-03T13:12:38.983Z,19.60
2018-09-03T13:17:42.786Z,21.17
2018-09-03T13:22:46.707Z,23.90
2018-09-03T13:27:50.591Z,20.90
2018-09-03T13:32:54.449Z,24.20
2018-09-03T13:37:58.381Z,18.37
2018-09-03T13:43:02.186Z,21.03
2018-09-03T13:48:06.430Z,22.27
2018-09-03T13:53:10.659Z,24.40
2018-09-03T14:03:43.130Z,26.13
2018-09-03T14:08:49.195Z,23.40
2018-09-03T14:13:53.103Z,26.07
2018-09-03T14:19:04.507Z,23.67
2018-09-03T14:24:08.750Z,27.53
2018-09-03T14:29:17.466Z,26.73
2018-09-03T14:34:21.315Z,27.03
2018-09-03T14:39:41.384Z,24.30
2018-09-03T14:44:45.439Z,24.23
2018-09-03T14:49:49.361Z,24.57
2018-09-03T14:54:54.283Z,23.53
2018-09-03T14:59:58.679Z,22.07
2018-09-03T15:05:02.882Z,22.77
2018-09-03T15:10:07.402Z,21.70
2018-09-03T15:15:11.529Z,25.07
2018-09-03T15:20:15.488Z,25.43
2018-09-03T15:25:19.428Z,25.27
2018-09-03T15:30:23.456Z,26.77
2018-09-03T15:35:27.215Z,27.30
2018-09-03T15:40:31.100Z,24.50
2018-09-03T15:45:35.331Z,25.43
2018-09-03T15:50:39.173Z,28.07
2018-09-03T15:55:43.512Z,23.37
2018-09-03T16:00:47.540Z,21.67
2018-09-03T16:05:51.203Z,25.10
2018-09-03T16:10:55.386Z,20.80
2018-09-03T16:15:59.383Z,25.90
2018-09-03T16:21:03.564Z,20.47
2018-09-03T16:26:07.469Z,19.17
2018-09-03T16:31:11.352Z,19.77
2018-09-03T16:36:15.330Z,19.00
2018-09-03T16:41:19.335Z,21.10
2018-09-03T16:46:23.175Z,20.40
2018-09-03T16:51:27.080Z,18.77
2018-09-03T16:56:31.261Z,18.27
2018-09-03T17:01:35.356Z,18.53
2018-09-03T17:06:39.272Z,19.37
2018-09-03T17:11:43.319Z,19.30
2018-09-03T17:16:47.277Z,17.60
2018-09-03T17:21:51.248Z,18.43
2018-09-03T17:26:55.331Z,16.67
2018-09-03T17:31:59.431Z,17.73
2018-09-03T17:37:03.364Z,17.60
2018-09-03T17:42:07.209Z,18.30
2018-09-03T17:47:11.920Z,16.40
2018-09-03T17:52:15.811Z,16.83
2018-09-03T17:57:19.588Z,16.80
2018-09-03T18:02:23.784Z,16.70
2018-09-03T18:07:28.097Z,16.17
2018-09-03T18:12:31.973Z,16.27
2018-09-03T18:17:35.633Z,15.33
2018-09-03T18:22:40.017Z,16.27
2018-09-03T18:27:43.655Z,16.17
2018-09-03T18:32:47.861Z,17.13
2018-09-03T18:37:52.168Z,16.50
2018-09-03T18:42:56.465Z,16.73
2018-09-03T18:48:00.196Z,18.00
2018-09-03T18:53:04.135Z,19.00
2018-09-03T18:58:08.467Z,17.13
2018-09-03T19:03:12.554Z,17.00
2018-09-03T19:08:17.078Z,16.60
2018-09-03T19:13:20.904Z,17.77
2018-09-03T19:18:25.278Z,16.90
2018-09-03T19:23:28.968Z,18.63
2018-09-03T19:28:33.111Z,17.73
2018-09-03T19:33:37.177Z,16.90
2018-09-03T19:55:04.987Z,18.07
2018-09-03T20:00:08.617Z,16.90
2018-09-03T20:05:12.431Z,17.57
2018-09-03T20:10:16.108Z,16.63
2018-09-03T20:15:28.041Z,20.60
2018-09-03T20:20:31.784Z,18.00
2018-09-03T20:25:35.707Z,18.13
2018-09-03T20:30:39.429Z,19.00
2018-09-03T20:35:43.199Z,19.60
2018-09-03T20:40:47.250Z,20.37
2018-09-03T20:45:51.250Z,20.20
2018-09-03T20:50:54.840Z,18.63
2018-09-03T20:55:58.486Z,17.97
2018-09-03T21:01:02.410Z,18.80
2018-09-03T21:06:06.029Z,19.83
2018-09-03T21:11:09.957Z,24.93
2018-09-03T21:16:13.512Z,22.23
2018-09-03T21:21:17.260Z,21.73
2018-09-03T21:26:20.839Z,21.73
2018-09-03T21:31:24.730Z,22.10
2018-09-03T21:36:28.576Z,22.43
2018-09-03T21:41:32.251Z,24.50
2018-09-03T21:46:36.229Z,24.43
2018-09-03T21:51:40.166Z,23.27
2018-09-03T21:56:43.895Z,24.23
2018-09-03T22:01:47.697Z,23.87
2018-09-03T22:06:52.052Z,23.47
2018-09-03T22:11:55.776Z,21.50
2018-09-03T22:16:59.516Z,24.17
2018-09-03T22:22:03.211Z,28.37
2018-09-03T22:27:07.402Z,25.57
2018-09-03T22:32:11.268Z,25.80
2018-09-03T22:37:14.888Z,26.13
2018-09-03T22:42:18.600Z,28.53
2018-09-03T22:47:22.712Z,31.90
2018-09-03T22:52:26.632Z,31.93
2018-09-03T22:57:53.444Z,30.63
2018-09-03T23:02:58.403Z,29.00
2018-09-03T23:08:03.451Z,27.90
2018-09-03T23:13:07.541Z,29.10
2018-09-03T23:18:11.360Z,28.20
2018-09-03T23:23:15.568Z,28.87
2018-09-03T23:28:19.430Z,33.53
2018-09-03T23:33:23.624Z,36.67
2018-09-03T23:38:47.166Z,35.67
2018-09-03T23:43:50.780Z,38.50
2018-09-03T23:48:54.453Z,34.43
2018-09-03T23:53:58.492Z,35.20
2018-09-03T23:59:15.608Z,38.87
